This is the latest recevied weather packets stored in our database for station/object I4GOS-3. If no packets are shown the sender has not sent any weather packets the latest 1 day(s).
| Time | Temp. | Humidity | Pressure | Rain* | Wind** | Luminosity | Snow |
|---|---|---|---|---|---|---|---|
| 1778099386 | 18.33° C | 73% | 1011.7 hPa | 0 mm | - | - | - |
| 1778098485 | 18.33° C | 73% | 1011.5 hPa | 0 mm | - | - | - |
| 1778098185 | 18.33° C | 73% | 1011.5 hPa | 0 mm | - | - | - |
| 1778097284 | 18.33° C | 73% | 1011.5 hPa | 0 mm | - | - | - |
| 1778096984 | 18.33° C | 72% | 1011.5 hPa | 0 mm | - | - | - |
| 1778096684 | 18.89° C | 72% | 1011.4 hPa | 0 mm | - | - | - |
| 1778095483 | 18.89° C | 72% | 1011.3 hPa | 0 mm | - | - | - |
| 1778094282 | 18.89° C | 71% | 1010.9 hPa | 0 mm | - | - | - |
| 1778093081 | 18.89° C | 70% | 1010.7 hPa | 0 mm | - | - | - |
| 1778092781 | 18.89° C | 69% | 1010.6 hPa | 0 mm | - | - | - |
| 1778092180 | 19.44° C | 69% | 1010.4 hPa | 0 mm | - | - | - |
| 1778091580 | 20° C | 66% | 1010.2 hPa | 0 mm | - | - | - |
| 1778090379 | 21.11° C | 62% | 1009.8 hPa | 0 mm | - | - | - |
| 1778089178 | 21.11° C | 61% | 1009.7 hPa | 0 mm | - | - | - |
| 1778088277 | 21.67° C | 60% | 1009.6 hPa | 0 mm | - | - | - |
| 1778087977 | 21.67° C | 59% | 1009.6 hPa | 0 mm | - | - | - |
| 1778086776 | 21.67° C | 58% | 1009.4 hPa | 0 mm | - | - | - |
| 1778086476 | 21.67° C | 58% | 1009.4 hPa | 0 mm | - | - | - |
| 1778085575 | 22.22° C | 57% | 1009.5 hPa | 0 mm | - | - | - |
| 1778085275 | 22.22° C | 56% | 1009.4 hPa | 0 mm | - | - | - |
| 1778084074 | 22.78° C | 56% | 1009.5 hPa | 0 mm | - | - | - |
| 1778082873 | 22.78° C | 56% | 1009.6 hPa | 0 mm | - | - | - |
| 1778081672 | 23.33° C | 53% | 1009.4 hPa | 0 mm | - | - | - |
| 1778081372 | 23.33° C | 54% | 1009.4 hPa | 0 mm | - | - | - |
| 1778080171 | 22.78° C | 57% | 1009.4 hPa | 0 mm | - | - | - |
* Rain latest hour (hover to see other rain measurements)
** Current wind speed in m/s (hover to see current wind gust speed)